Time;durP1;ratioP1;P1;durP2;ratioP2;P2;SDS_P1;SDS_P2;PMS_P1;PMS_P2;Temp;Humidity;BMP_temperature;BMP_pressure;BME280_temperature;BME280_humidity;BME280_pressure;Samples;Min_cycle;Max_cycle;Signal;HPM_P1;HPM_P2
2022/09/28 00:01:08;;;;;;;3.72;1.77;;;10.90;99.90;;;10.86;100.00;98997.44;5209669;28;20052;-80
2022/09/28 00:03:42;;;;;;;1.30;1.15;;;10.90;99.90;;;10.84;100.00;99000.03;5209369;28;20088;-81
2022/09/28 00:06:18;;;;;;;2.22;1.33;;;10.80;99.90;;;10.82;100.00;98993.97;5228108;28;20130;-80
2022/09/28 00:08:51;;;;;;;1.80;1.23;;;10.80;99.90;;;10.81;100.00;98996.53;5192481;28;20055;-80
2022/09/28 00:11:26;;;;;;;1.42;1.05;;;10.80;99.90;;;10.80;100.00;98994.78;5209580;28;20049;-80
2022/09/28 00:14:02;;;;;;;1.30;0.90;;;10.80;99.90;;;10.79;100.00;99000.88;5209241;28;20059;-79
2022/09/28 00:16:38;;;;;;;1.00;1.00;;;10.80;99.90;;;10.79;100.00;98998.28;5227566;28;20057;-79
2022/09/28 00:19:13;;;;;;;1.85;1.00;;;10.80;99.90;;;10.79;100.00;99006.09;5209080;28;20048;-79
2022/09/28 00:21:45;;;;;;;1.52;0.70;;;10.80;99.90;;;10.81;100.00;99004.34;5226992;28;20060;-80
2022/09/28 00:24:19;;;;;;;1.10;0.80;;;10.80;99.90;;;10.82;100.00;99006.09;5192825;28;20527;-80
2022/09/28 00:26:54;;;;;;;0.82;0.82;;;10.80;99.90;;;10.83;100.00;99003.53;5192634;28;20045;-80
2022/09/28 00:29:28;;;;;;;1.63;0.80;;;10.80;99.90;;;10.84;100.00;99005.25;5176223;28;20052;-79
2022/09/28 00:32:03;;;;;;;0.90;0.80;;;10.80;99.90;;;10.85;100.00;98995.69;5209014;28;20053;-81
2022/09/28 00:34:40;;;;;;;0.70;0.70;;;10.80;99.90;;;10.86;100.00;99005.25;5192242;28;20407;-80
2022/09/28 00:37:14;;;;;;;1.00;0.80;;;10.80;99.90;;;10.83;100.00;98995.69;5208936;28;20053;-81
2022/09/28 00:39:48;;;;;;;1.45;0.80;;;10.80;99.90;;;10.84;100.00;98996.56;5208894;28;20048;-81
2022/09/28 00:42:25;;;;;;;1.67;0.90;;;10.80;99.90;;;10.82;100.00;99001.78;5226633;28;20193;-79
2022/09/28 00:44:58;;;;;;;0.77;0.70;;;10.80;99.90;;;10.82;100.00;99000.88;5208476;28;20053;-80
2022/09/28 00:47:48;;;;;;;1.90;0.70;;;10.80;99.90;;;10.81;100.00;99001.75;5208697;28;20137;-79
2022/09/28 00:50:27;;;;;;;1.15;0.60;;;10.80;99.90;;;10.80;100.00;98992.19;5208428;28;20041;-79
2022/09/28 00:53:05;;;;;;;0.60;0.60;;;10.80;99.90;;;10.79;100.00;98993.94;5208707;28;20072;-80
2022/09/28 00:55:42;;;;;;;0.88;0.70;;;10.80;99.90;;;10.79;100.00;98988.72;5208452;28;20077;-80
2022/09/28 00:58:19;;;;;;;0.50;0.50;;;10.80;99.90;;;10.79;100.00;98995.66;5175651;28;20576;-81
2022/09/28 01:00:53;;;;;;;1.05;0.70;;;10.80;99.90;;;10.77;100.00;98992.19;5208019;28;20052;-80
2022/09/28 01:03:26;;;;;;;0.52;0.52;;;10.80;99.90;;;10.75;100.00;98983.47;5191819;28;20052;-81
2022/09/28 01:06:04;;;;;;;0.60;0.60;;;10.70;99.90;;;10.75;100.00;98980.88;5191194;28;20144;-81
2022/09/28 01:08:38;;;;;;;1.08;0.50;;;10.70;99.90;;;10.75;100.00;98983.47;5191908;28;20041;-81
2022/09/28 01:11:11;;;;;;;0.70;0.70;;;10.80;99.90;;;10.75;100.00;98980.88;5191897;28;20055;-81
2022/09/28 01:13:44;;;;;;;0.55;0.55;;;10.70;99.90;;;10.72;100.00;98978.25;5192456;28;20532;-81
2022/09/28 01:16:34;;;;;;;1.05;0.60;;;10.70;99.90;;;10.70;100.00;98975.66;5207734;28;20496;-80
2022/09/28 01:19:43;;;;;;;1.30;0.50;;;10.70;99.90;;;10.69;100.00;98973.88;5193322;28;20041;-80
2022/09/28 01:22:34;;;;;;;0.90;0.50;;;10.70;99.90;;;10.66;100.00;98968.66;5191426;28;20059;-81
2022/09/28 01:25:12;;;;;;;0.95;0.60;;;10.70;99.90;;;10.66;100.00;98989.50;5191815;28;20456;-80
2022/09/28 01:27:51;;;;;;;0.70;0.55;;;10.60;99.90;;;10.65;100.00;98972.13;5207888;28;20049;-80
2022/09/28 01:30:24;;;;;;;0.68;0.68;;;10.60;99.90;;;10.65;100.00;98973.88;5191577;28;20045;-81
2022/09/28 01:33:04;;;;;;;1.88;0.80;;;10.70;99.90;;;10.63;100.00;98978.19;5191292;28;20482;-80
2022/09/28 01:35:42;;;;;;;0.50;0.50;;;10.60;99.90;;;10.63;100.00;98983.41;5208032;28;20053;-80
2022/09/28 01:38:22;;;;;;;0.50;0.50;;;10.60;99.90;;;10.62;100.00;98981.66;5207921;28;20394;-80
2022/09/28 01:40:56;;;;;;;1.13;0.55;;;10.60;99.90;;;10.61;100.00;98978.19;5208294;28;20041;-80
2022/09/28 01:43:39;;;;;;;1.30;0.60;;;10.70;99.90;;;10.63;100.00;98975.59;5207754;28;20041;-80
2022/09/28 01:46:14;;;;;;;0.40;0.40;;;10.60;99.90;;;10.60;100.00;98969.50;5191831;28;20068;-80
2022/09/28 01:48:52;;;;;;;0.52;0.50;;;10.60;99.90;;;10.59;100.00;98962.56;5191527;28;20421;-81
2022/09/28 01:51:34;;;;;;;0.50;0.50;;;10.60;99.90;;;10.59;100.00;98972.09;5191398;28;20059;-80
2022/09/28 01:54:15;;;;;;;1.80;0.60;;;10.60;99.90;;;10.56;100.00;98972.06;5207721;28;20053;-81
2022/09/28 01:56:54;;;;;;;0.40;0.40;;;10.60;99.90;;;10.53;100.00;98962.50;5207803;28;20045;-80
2022/09/28 01:59:32;;;;;;;0.50;0.50;;;10.60;99.90;;;10.54;100.00;98964.25;5191240;28;20424;-81
2022/09/28 02:02:12;;;;;;;0.63;0.50;;;10.60;99.90;;;10.54;100.00;98959.03;5207156;28;20083;-81
2022/09/28 02:04:52;;;;;;;0.60;0.60;;;10.50;99.90;;;10.54;100.00;98960.78;5174520;28;20073;-81
2022/09/28 02:07:31;;;;;;;1.23;0.70;;;10.60;99.90;;;10.52;100.00;98959.91;5190670;28;20049;-81
2022/09/28 02:10:09;;;;;;;1.13;0.63;;;10.50;99.90;;;10.51;100.00;98963.38;5206995;28;20055;-81
2022/09/28 02:12:47;;;;;;;0.95;0.68;;;10.50;99.90;;;10.49;100.00;98957.28;5207145;28;20049;-80
2022/09/28 02:15:26;;;;;;;0.60;0.60;;;10.50;99.90;;;10.49;100.00;98958.13;5190935;28;20073;-80
2022/09/28 02:17:59;;;;;;;1.38;0.80;;;10.50;99.90;;;10.48;100.00;98964.22;5225989;28;20033;-81
2022/09/28 02:20:34;;;;;;;1.10;0.90;;;10.50;99.90;;;10.45;100.00;98958.13;5228950;28;20041;-81
2022/09/28 02:23:08;;;;;;;2.35;1.00;;;10.40;99.90;;;10.45;100.00;98963.34;5179280;28;20510;-81
2022/09/28 02:25:48;;;;;;;2.83;1.40;;;10.50;99.90;;;10.43;100.00;98955.53;5178876;28;20045;-80
2022/09/28 02:28:21;;;;;;;2.22;1.33;;;10.50;99.90;;;10.42;100.00;98964.19;5211074;28;20056;-79
2022/09/28 02:30:57;;;;;;;2.00;1.15;;;10.40;99.90;;;10.41;100.00;98961.56;5211047;28;20044;-80
2022/09/28 02:33:35;;;;;;;1.98;1.23;;;10.40;99.90;;;10.40;100.00;98965.03;5211227;28;20359;-81
2022/09/28 02:36:08;;;;;;;2.65;1.20;;;10.40;99.90;;;10.36;100.00;98971.94;5211066;28;20044;-81
2022/09/28 02:38:43;;;;;;;1.73;1.45;;;10.40;99.90;;;10.35;100.00;98957.19;5211755;28;20041;-80
2022/09/28 02:41:31;;;;;;;1.85;1.30;;;10.40;99.90;;;10.35;100.00;98967.59;5195069;28;20057;-81
2022/09/28 02:44:15;;;;;;;2.60;1.42;;;10.40;99.90;;;10.37;100.00;98970.22;5194988;28;20432;-81
2022/09/28 02:46:59;;;;;;;1.83;1.25;;;10.40;99.90;;;10.37;100.00;98970.22;5179580;28;20445;-81
2022/09/28 02:49:43;;;;;;;2.70;1.40;;;10.40;99.90;;;10.37;100.00;98965.91;5210752;28;20048;-80
2022/09/28 02:52:37;;;;;;;2.97;1.73;;;10.40;99.90;;;10.35;100.00;98965.00;5211031;28;20055;-81
2022/09/28 02:55:29;;;;;;;3.03;1.60;;;10.40;99.90;;;10.36;100.00;98965.88;5194432;28;20068;-80
2022/09/28 02:58:25;;;;;;;2.78;1.70;;;10.40;99.90;;;10.38;100.00;98966.78;5228968;28;20052;-81
2022/09/28 03:01:08;;;;;;;5.78;1.90;;;10.40;99.90;;;10.35;100.00;98972.81;5210736;28;20053;-81
2022/09/28 03:03:48;;;;;;;4.72;1.90;;;10.40;99.90;;;10.33;100.00;98971.94;5210241;28;20044;-81
2022/09/28 03:06:29;;;;;;;3.10;2.00;;;10.40;99.90;;;10.32;100.00;98972.81;5211059;28;20051;-80
2022/09/28 03:09:10;;;;;;;5.70;2.50;;;10.30;99.90;;;10.31;100.00;98965.88;5194059;28;20131;-81
2022/09/28 03:11:48;;;;;;;3.67;2.10;;;10.40;99.90;;;10.34;100.00;98968.47;5194029;28;20063;-81
2022/09/28 03:14:21;;;;;;;3.95;1.83;;;10.40;99.90;;;10.32;100.00;98971.06;5194417;28;20048;-81
2022/09/28 03:17:00;;;;;;;3.72;1.70;;;10.30;99.90;;;10.35;100.00;98975.41;5210411;28;20087;-81
2022/09/28 03:19:35;;;;;;;2.80;1.67;;;10.40;99.90;;;10.36;100.00;98974.56;5210156;28;20056;-81
2022/09/28 03:22:08;;;;;;;3.55;2.00;;;10.40;99.90;;;10.33;100.00;98974.53;5210424;28;20053;-81
2022/09/28 03:24:42;;;;;;;4.70;2.47;;;10.40;99.90;;;10.31;100.00;98982.34;5209794;28;20131;-81
2022/09/28 03:27:14;;;;;;;5.18;2.45;;;10.40;99.90;;;10.26;100.00;98968.44;5210287;28;20099;-80
2022/09/28 03:29:47;;;;;;;3.42;2.13;;;10.40;99.90;;;10.27;100.00;98969.28;5193188;28;20483;-80
2022/09/28 03:32:19;;;;;;;4.05;1.90;;;10.30;99.90;;;10.31;100.00;98971.94;5209177;28;20566;-80
2022/09/28 03:34:53;;;;;;;3.65;1.98;;;10.40;99.90;;;10.30;100.00;98970.19;5193751;28;20053;-81
2022/09/28 03:37:26;;;;;;;3.90;2.13;;;10.40;99.90;;;10.32;100.00;98978.00;5193671;28;20135;-80
2022/09/28 03:40:00;;;;;;;4.70;2.67;;;10.40;99.90;;;10.31;100.00;98973.66;5209888;28;20052;-80
2022/09/28 03:42:37;;;;;;;4.20;2.20;;;10.30;99.90;;;10.32;100.00;98972.81;5210003;28;20052;-80
2022/09/28 03:45:11;;;;;;;4.35;2.20;;;10.30;99.90;;;10.31;100.00;98973.66;5177626;28;20128;-81
2022/09/28 03:47:49;;;;;;;3.22;2.03;;;10.30;99.90;;;10.34;100.00;98976.28;5209973;28;20052;-81
2022/09/28 03:50:28;;;;;;;3.20;2.00;;;10.40;99.90;;;10.36;100.00;98966.75;5193331;28;20041;-80
2022/09/28 03:53:05;;;;;;;6.72;2.83;;;10.40;99.90;;;10.39;100.00;98969.38;5210372;28;20407;-79
2022/09/28 03:55:38;;;;;;;4.28;2.35;;;10.40;99.90;;;10.40;100.00;98971.13;5193486;28;20045;-81
2022/09/28 03:58:10;;;;;;;3.63;2.30;;;10.40;99.90;;;10.37;100.00;98978.03;5209936;28;20045;-81
2022/09/28 04:00:46;;;;;;;4.78;2.55;;;10.40;99.90;;;10.37;100.00;98976.31;5209623;28;20049;-81
2022/09/28 04:03:18;;;;;;;3.35;2.25;;;10.40;99.90;;;10.36;100.00;98974.56;5216902;23;20073;-75
2022/09/28 04:05:53;;;;;;;4.18;2.45;;;10.40;99.90;;;10.37;100.00;98971.13;5189138;28;20052;-73
2022/09/28 04:08:25;;;;;;;2.65;2.10;;;10.40;99.90;;;10.40;100.00;98976.31;5188860;28;20046;-73
2022/09/28 04:10:59;;;;;;;3.33;2.20;;;10.40;99.90;;;10.44;100.00;98972.91;5188820;28;20502;-72
2022/09/28 04:13:32;;;;;;;4.88;2.70;;;10.50;99.90;;;10.45;100.00;98974.63;5189003;28;20046;-73
2022/09/28 04:16:05;;;;;;;3.72;2.28;;;10.50;99.90;;;10.45;100.00;98977.25;5188962;28;20180;-75
2022/09/28 04:18:39;;;;;;;6.50;2.83;;;10.50;99.90;;;10.43;100.00;98981.56;5205497;28;20041;-72
2022/09/28 04:21:27;;;;;;;4.43;2.70;;;10.40;99.90;;;10.44;100.00;98978.09;5188784;28;20438;-73
2022/09/28 04:24:05;;;;;;;4.43;2.40;;;10.50;99.90;;;10.44;100.00;98970.28;5188831;28;20520;-73
2022/09/28 04:26:37;;;;;;;4.47;2.70;;;10.50;99.90;;;10.46;100.00;98970.28;5188688;28;20573;-73
2022/09/28 04:29:16;;;;;;;3.92;2.50;;;10.50;99.90;;;10.48;100.00;98974.63;5188576;28;20049;-73
2022/09/28 04:32:15;;;;;;;4.75;2.80;;;10.50;99.90;;;10.45;100.00;98976.38;5203159;28;20437;-73
2022/09/28 04:34:47;;;;;;;6.80;3.03;;;10.50;99.90;;;10.42;100.00;98978.94;5188575;28;20050;-73
2022/09/28 04:37:20;;;;;;;6.32;3.53;;;10.50;99.90;;;10.39;100.00;98974.59;5188693;28;20056;-73
2022/09/28 04:39:52;;;;;;;8.30;3.58;;;10.40;99.90;;;10.33;100.00;98984.97;5205798;28;20139;-73
2022/09/28 04:42:25;;;;;;;10.00;4.43;;;10.40;99.90;;;10.28;100.00;98978.84;5187855;28;20069;-74
2022/09/28 04:44:57;;;;;;;8.27;4.20;;;10.30;99.90;;;10.26;100.00;98977.97;5188268;28;20076;-74
2022/09/28 04:47:30;;;;;;;8.20;4.03;;;10.30;99.90;;;10.22;100.00;98986.56;5188251;28;20569;-73
2022/09/28 04:50:20;;;;;;;10.55;5.03;;;10.30;99.90;;;10.18;100.00;98982.22;5205734;28;20034;-72
2022/09/28 04:53:12;;;;;;;9.30;4.50;;;10.30;99.90;;;10.15;100.00;98987.41;5188022;28;20076;-73
2022/09/28 04:55:45;;;;;;;6.05;3.65;;;10.20;99.90;;;10.14;100.00;98990.84;5205810;28;20064;-73
2022/09/28 04:58:17;;;;;;;7.22;3.55;;;10.20;99.90;;;10.16;100.00;98989.13;5188081;28;20049;-73
2022/09/28 05:00:50;;;;;;;5.78;3.20;;;10.20;99.90;;;10.19;100.00;98992.66;5187875;28;20132;-74
2022/09/28 05:03:41;;;;;;;8.30;3.80;;;10.20;99.90;;;10.19;100.00;98991.78;5205755;28;20518;-75
2022/09/28 05:06:27;;;;;;;7.53;3.88;;;10.30;99.90;;;10.16;100.00;98996.94;5205608;28;20042;-74
2022/09/28 05:09:08;;;;;;;5.88;3.40;;;10.20;99.90;;;10.14;100.00;98994.34;5187938;28;20053;-72
2022/09/28 05:11:40;;;;;;;6.43;3.65;;;10.20;99.90;;;10.13;100.00;98991.72;5188168;28;20100;-73
2022/09/28 05:14:18;;;;;;;6.13;3.20;;;10.20;99.90;;;10.13;100.00;99002.13;5187781;28;20601;-72
2022/09/28 05:16:50;;;;;;;6.30;3.65;;;10.20;99.90;;;10.11;100.00;99003.88;5187779;28;20045;-73
2022/09/28 05:19:33;;;;;;;7.90;3.53;;;10.20;99.90;;;10.07;100.00;98993.41;5205885;28;20075;-75
2022/09/28 05:22:13;;;;;;;6.15;3.17;;;10.20;99.90;;;10.09;100.00;99000.34;5187819;28;20391;-73
2022/09/28 05:24:50;;;;;;;5.35;2.80;;;10.10;99.90;;;10.12;100.00;99000.41;5187608;28;20049;-74
2022/09/28 05:27:22;;;;;;;9.88;3.67;;;10.20;99.90;;;10.08;100.00;98994.28;5187541;28;20060;-74
2022/09/28 05:30:05;;;;;;;7.07;3.40;;;10.20;99.90;;;10.05;100.00;98995.13;5187493;28;20140;-74
2022/09/28 05:32:56;;;;;;;7.38;3.80;;;10.20;99.90;;;10.04;100.00;98996.00;5205259;28;20076;-71
2022/09/28 05:35:47;;;;;;;7.47;3.25;;;10.10;99.90;;;10.03;100.00;99002.03;5186785;28;20054;-73
2022/09/28 05:38:19;;;;;;;5.47;3.17;;;10.20;99.90;;;10.03;100.00;98998.56;5186958;28;20136;-73
2022/09/28 05:40:53;;;;;;;7.07;3.42;;;10.10;99.90;;;10.02;100.00;98999.44;5204655;28;20380;-70
2022/09/28 05:43:26;;;;;;;7.30;3.33;;;10.10;99.90;;;10.01;100.00;98998.56;5187571;28;20049;-65
2022/09/28 05:46:00;;;;;;;4.38;2.78;;;10.10;99.90;;;10.05;100.00;98995.13;5187253;28;20498;-65
2022/09/28 05:48:32;;;;;;;4.63;2.42;;;10.10;99.90;;;10.11;100.00;98991.72;5187036;28;20054;-65
2022/09/28 05:51:04;;;;;;;6.13;2.60;;;10.20;99.90;;;10.16;100.00;98995.22;5186657;28;20045;-64
2022/09/28 05:53:36;;;;;;;3.85;2.67;;;10.20;99.90;;;10.18;100.00;99001.31;5210661;28;20076;-65
2022/09/28 05:56:11;;;;;;;4.53;3.00;;;10.20;99.90;;;10.24;100.00;98997.94;5193387;28;20136;-65
2022/09/28 05:58:48;;;;;;;5.72;2.85;;;10.20;99.90;;;10.25;100.00;99004.88;5193157;28;20045;-64
2022/09/28 06:01:22;;;;;;;5.15;2.70;;;10.30;99.90;;;10.26;100.00;99004.88;5209823;28;20048;-64
2022/09/28 06:03:55;;;;;;;4.20;2.53;;;10.30;99.90;;;10.28;100.00;99010.09;5193012;28;20049;-57
2022/09/28 06:06:28;;;;;;;4.38;2.20;;;10.30;99.90;;;10.31;100.00;99008.41;5192640;28;20145;-55
2022/09/28 06:09:02;;;;;;;5.72;3.10;;;10.30;99.90;;;10.31;100.00;99002.31;5192519;28;20051;-55
2022/09/28 06:11:41;;;;;;;8.20;3.50;;;10.30;99.90;;;10.30;100.00;99013.56;5192446;28;20057;-56
2022/09/28 06:14:21;;;;;;;6.72;3.42;;;10.40;99.90;;;10.29;100.00;99004.03;5192770;28;20132;-55
2022/09/28 06:16:53;;;;;;;5.65;3.17;;;10.30;99.90;;;10.27;100.00;99003.16;5192948;28;20060;-55
2022/09/28 06:19:26;;;;;;;4.50;2.40;;;10.30;99.90;;;10.28;100.00;99012.69;5192514;28;20080;-55
2022/09/28 06:22:21;;;;;;;5.13;2.78;;;10.30;99.90;;;10.33;100.00;99016.22;5204584;28;20140;-56
2022/09/28 06:25:00;;;;;;;5.15;2.83;;;10.40;99.90;;;10.37;100.00;99012.78;5192651;28;20111;-56
2022/09/28 06:27:34;;;;;;;5.47;2.50;;;10.40;99.90;;;10.41;100.00;99018.88;5192954;28;20131;-56
2022/09/28 06:30:07;;;;;;;4.72;2.80;;;10.40;99.90;;;10.45;100.00;99021.50;5210570;28;20046;-56
2022/09/28 06:32:40;;;;;;;3.60;2.42;;;10.50;99.90;;;10.44;100.00;99018.91;5208866;28;20422;-56
2022/09/28 06:35:14;;;;;;;5.80;2.80;;;10.50;99.90;;;10.43;100.00;99027.56;5192384;28;20475;-55
2022/09/28 06:37:46;;;;;;;5.40;2.72;;;10.50;99.90;;;10.41;100.00;99034.50;5210671;28;20041;-56
2022/09/28 06:40:20;;;;;;;5.53;2.90;;;10.50;99.90;;;10.39;100.00;99037.09;5192970;28;20061;-55
2022/09/28 06:42:58;;;;;;;7.05;2.90;;;10.40;99.90;;;10.37;100.00;99038.81;5192714;28;20052;-55
2022/09/28 06:45:52;;;;;;;4.97;2.70;;;10.40;99.90;;;10.39;100.00;99039.69;5210856;28;20084;-55
2022/09/28 06:48:36;;;;;;;6.50;2.85;;;10.40;99.90;;;10.37;100.00;99045.75;5210902;28;20057;-55
2022/09/28 06:51:10;;;;;;;5.97;3.10;;;10.40;99.90;;;10.34;100.00;99038.78;5192600;28;20041;-57
2022/09/28 06:53:58;;;;;;;4.65;2.38;;;10.40;99.90;;;10.34;100.00;99044.00;5209412;28;20528;-57
2022/09/28 06:56:56;;;;;;;5.90;2.33;;;10.40;99.90;;;10.30;100.00;99045.72;5197954;28;20104;-56
2022/09/28 06:59:30;;;;;;;4.68;1.95;;;10.40;99.90;;;10.33;100.00;99050.06;5210556;28;20140;-54
2022/09/28 07:02:04;;;;;;;3.63;2.05;;;10.40;99.90;;;10.36;100.00;99057.03;5192805;28;20049;-56
2022/09/28 07:05:08;;;;;;;4.70;2.38;;;10.40;99.90;;;10.35;100.00;99056.16;5201627;28;20057;-55
2022/09/28 07:07:46;;;;;;;4.68;1.92;;;10.40;99.90;;;10.36;100.00;99062.22;5207595;28;20046;-54
2022/09/28 07:10:41;;;;;;;3.72;2.10;;;10.40;99.90;;;10.38;100.00;99065.75;5207290;28;20134;-55
2022/09/28 07:13:39;;;;;;;2.90;2.00;;;10.50;99.90;;;10.42;100.00;99067.50;5195900;28;20061;-55
2022/09/28 07:16:14;;;;;;;3.80;2.08;;;10.50;99.90;;;10.43;100.00;99069.22;5207074;28;20045;-55
2022/09/28 07:18:46;;;;;;;3.38;1.63;;;10.50;99.90;;;10.44;100.00;99077.09;5207058;28;20041;-55
2022/09/28 07:21:18;;;;;;;5.10;2.30;;;10.50;99.90;;;10.45;100.00;99076.22;5189207;28;20104;-56
2022/09/28 07:23:52;;;;;;;4.47;2.25;;;10.50;99.90;;;10.43;100.00;99077.94;5189219;28;20057;-56
2022/09/28 07:26:32;;;;;;;4.75;1.98;;;10.50;99.90;;;10.44;100.00;99084.91;5207248;28;20053;-55
2022/09/28 07:29:12;;;;;;;4.30;2.30;;;10.50;99.90;;;10.45;100.00;99076.22;5189005;28;20449;-55
2022/09/28 07:32:05;;;;;;;5.10;2.30;;;10.50;99.90;;;10.47;100.00;99084.91;5207054;28;20114;-56
2022/09/28 07:34:56;;;;;;;3.97;2.17;;;10.50;99.90;;;10.46;100.00;99095.31;5188976;28;20060;-56
2022/09/28 07:37:36;;;;;;;3.00;1.98;;;10.50;99.90;;;10.47;100.00;99094.47;5206890;28;20488;-56
2022/09/28 07:43:04;;;;;;;4.45;1.95;;;10.50;99.90;;;10.44;100.00;99092.72;5188772;28;20049;-56
2022/09/28 07:45:37;;;;;;;4.10;2.13;;;10.50;99.90;;;10.42;100.00;99103.97;5206617;28;20079;-56
2022/09/28 07:48:10;;;;;;;4.03;1.92;;;10.50;99.90;;;10.43;100.00;99103.09;5188641;28;20060;-55
2022/09/28 07:51:06;;;;;;;4.28;1.67;;;10.50;99.90;;;10.46;100.00;99109.22;5188567;28;20055;-56
2022/09/28 07:53:45;;;;;;;3.30;1.95;;;10.50;99.90;;;10.49;100.00;99111.81;5206436;28;20057;-56
2022/09/28 07:56:34;;;;;;;3.60;1.75;;;10.50;99.90;;;10.48;100.00;99115.31;5188600;28;20421;-54
2022/09/28 07:59:22;;;;;;;2.85;1.50;;;10.50;99.90;;;10.52;100.00;99118.81;5188563;28;20049;-55
2022/09/28 08:02:14;;;;;;;5.70;1.50;;;10.50;99.90;;;10.51;100.00;99120.56;5198851;28;20053;-55
2022/09/28 08:04:48;;;;;;;3.60;1.45;;;10.60;99.90;;;10.54;100.00;99120.56;5188432;28;20057;-55
2022/09/28 08:07:21;;;;;;;2.95;1.30;;;10.50;99.90;;;10.56;100.00;99128.38;5205282;28;20141;-56
2022/09/28 08:09:58;;;;;;;1.17;1.02;;;10.60;99.90;;;10.60;100.00;99133.66;5188289;28;20037;-55
2022/09/28 08:12:34;;;;;;;4.13;1.30;;;10.60;99.90;;;10.64;100.00;99137.16;5206317;28;20566;-56
2022/09/28 08:15:35;;;;;;;1.70;1.27;;;10.70;99.90;;;10.73;100.00;99131.13;5187114;28;20042;-56
2022/09/28 08:18:22;;;;;;;3.33;1.55;;;10.70;99.90;;;10.83;100.00;99132.97;5205935;28;20037;-56
2022/09/28 08:23:45;;;;;;;5.78;1.80;;;10.90;99.90;;;11.01;100.00;99127.84;5206175;28;20064;-56
2022/09/28 08:26:17;;;;;;;4.35;1.98;;;11.00;99.90;;;11.14;100.00;99132.28;5205773;28;20053;-57
2022/09/28 08:28:50;;;;;;;3.72;1.67;;;11.10;99.90;;;11.28;100.00;99131.50;5187876;28;20581;-57
2022/09/28 08:31:41;;;;;;;3.95;1.95;;;11.20;99.90;;;11.41;100.00;99138.53;5205755;28;20057;-56
2022/09/28 08:34:20;;;;;;;4.82;2.15;;;11.30;99.90;;;11.46;100.00;99142.03;5188022;28;20103;-57
2022/09/28 08:37:12;;;;;;;3.28;2.10;;;11.40;99.90;;;11.50;100.00;99149.00;5205968;28;20103;-57
2022/09/28 08:40:25;;;;;;;2.80;1.55;;;11.40;99.90;;;11.48;100.00;99145.53;5162271;28;20393;-57
2022/09/28 08:43:45;;;;;;;1.88;1.23;;;11.40;99.90;;;11.49;100.00;99149.88;5162314;28;20154;-57
2022/09/28 08:46:48;;;;;;;2.13;1.50;;;11.50;99.90;;;11.53;100.00;99149.00;5174733;28;20111;-57
2022/09/28 08:49:49;;;;;;;1.85;1.40;;;11.50;99.90;;;11.62;100.00;99154.28;5205597;28;20076;-56
2022/09/28 08:52:49;;;;;;;3.15;1.40;;;11.60;99.90;;;11.72;100.00;99154.31;5199524;28;20089;-57
2022/09/28 08:55:44;;;;;;;3.63;1.25;;;11.60;99.90;;;11.75;100.00;99155.22;5187391;28;20053;-56
2022/09/28 08:58:22;;;;;;;1.52;1.00;;;11.60;99.90;;;11.82;100.00;99161.38;5187421;28;20049;-55
2022/09/28 09:00:55;;;;;;;2.50;1.38;;;11.70;99.90;;;11.82;100.00;99167.47;5187202;28;20041;-57
2022/09/28 09:03:33;;;;;;;2.85;1.48;;;11.70;99.90;;;11.88;100.00;99171.84;5187302;28;20406;-56
2022/09/28 09:06:34;;;;;;;1.45;1.20;;;11.80;99.90;;;11.96;100.00;99164.91;5205316;28;20038;-57
2022/09/28 09:09:43;;;;;;;2.90;1.52;;;11.80;99.90;;;12.05;100.00;99171.88;5204785;28;20044;-57
2022/09/28 09:12:26;;;;;;;2.03;1.55;;;11.90;99.90;;;12.00;100.00;99171.88;5204347;28;20046;-57
2022/09/28 09:15:34;;;;;;;6.93;1.35;;;11.90;99.90;;;12.07;100.00;99178.88;5204887;28;20080;-57
2022/09/28 09:18:26;;;;;;;1.58;1.02;;;12.00;99.90;;;12.19;100.00;99173.69;5186976;28;20053;-58
2022/09/28 09:21:37;;;;;;;2.22;1.33;;;12.00;99.90;;;12.19;100.00;99176.28;5186699;28;20053;-57
2022/09/28 09:24:26;;;;;;;3.42;1.33;;;12.10;99.90;;;12.22;100.00;99181.50;5186972;28;20071;-55
2022/09/28 09:27:06;;;;;;;1.73;1.00;;;12.10;99.90;;;12.15;100.00;99178.88;5186575;28;20050;-56
2022/09/28 09:30:03;;;;;;;2.63;1.20;;;12.10;99.90;;;12.07;100.00;99191.06;5187047;28;20060;-56
2022/09/28 09:33:28;;;;;;;0.93;0.85;;;12.00;99.90;;;12.05;100.00;99183.19;5186807;28;20140;-57
2022/09/28 09:36:34;;;;;;;1.05;0.95;;;12.00;99.90;;;12.19;100.00;99185.84;5204847;28;20103;-57
2022/09/28 09:39:44;;;;;;;2.17;1.10;;;12.00;99.90;;;12.37;100.00;99187.63;5204860;28;20060;-56
2022/09/28 09:42:55;;;;;;;2.42;1.02;;;12.20;99.90;;;12.42;100.00;99191.13;5204746;28;20041;-57
2022/09/28 09:46:07;;;;;;;1.75;0.90;;;12.20;99.90;;;12.44;100.00;99195.47;5204389;28;20564;-57
2022/09/28 09:48:59;;;;;;;1.27;1.00;;;12.30;99.90;;;12.83;100.00;99190.28;5186668;28;20069;-56
2022/09/28 09:51:39;;;;;;;1.00;0.90;;;12.50;99.90;;;13.18;100.00;99192.91;5204278;28;20413;-57
2022/09/28 09:54:21;;;;;;;0.85;0.85;;;12.80;99.90;;;13.40;100.00;99191.16;5186835;28;20041;-57
2022/09/28 09:57:02;;;;;;;1.60;1.00;;;13.10;99.90;;;13.50;100.00;99199.00;5186483;28;20356;-61
2022/09/28 09:59:57;;;;;;;2.10;1.02;;;13.20;99.90;;;13.55;100.00;99191.97;5204775;28;20060;-57
2022/09/28 10:05:34;;;;;;;5.20;0.77;;;13.30;99.90;;;13.45;100.00;99190.28;5179910;28;20053;-62
2022/09/28 10:08:15;;;;;;;1.95;0.90;;;13.30;99.90;;;13.51;100.00;99190.25;5174694;28;20081;-61
2022/09/28 10:10:53;;;;;;;2.20;0.88;;;13.30;99.90;;;13.45;100.00;99194.66;5141835;28;20511;-64
2022/09/28 10:13:28;;;;;;;2.08;0.77;;;13.30;99.90;;;13.45;100.00;99200.75;5126817;28;20117;-61
2022/09/28 10:16:03;;;;;;;4.50;0.80;;;13.30;99.90;;;13.45;100.00;99205.13;5126834;28;20419;-60
2022/09/28 10:18:41;;;;;;;2.50;0.75;;;13.30;99.90;;;13.34;100.00;99196.41;5126488;28;20057;-60
2022/09/28 10:21:39;;;;;;;0.98;0.70;;;13.20;99.90;;;13.30;100.00;99201.66;5143001;28;20130;-57
2022/09/28 10:24:31;;;;;;;2.55;0.75;;;13.20;99.90;;;13.27;100.00;99200.78;5126175;28;20055;-59
2022/09/28 10:27:07;;;;;;;3.03;0.70;;;13.10;99.90;;;13.25;100.00;99200.78;5143422;28;20283;-58
2022/09/28 10:29:49;;;;;;;1.70;0.77;;;13.10;99.90;;;13.26;100.00;99194.66;5142834;28;20251;-59
2022/09/28 10:32:26;;;;;;;1.08;0.65;;;13.10;99.90;;;13.30;100.00;99206.00;5141752;28;20070;-57
2022/09/28 10:35:21;;;;;;;3.15;0.70;;;13.10;99.90;;;13.22;100.00;99199.91;5141686;28;20042;-59
2022/09/28 10:38:03;;;;;;;1.13;0.60;;;13.10;99.90;;;13.24;100.00;99201.66;5156563;28;20404;-58
2022/09/28 10:40:46;;;;;;;0.60;0.52;;;13.10;99.90;;;13.24;100.00;99201.66;5165377;28;20054;-59
2022/09/28 10:43:26;;;;;;;1.60;0.70;;;13.10;99.90;;;13.28;100.00;99202.50;5149431;28;20137;-60
2022/09/28 10:46:07;;;;;;;1.08;0.57;;;13.10;99.90;;;13.28;100.00;99208.63;5149761;28;20042;-58
2022/09/28 10:48:52;;;;;;;1.90;0.57;;;13.20;99.90;;;13.32;100.00;99206.88;5149359;28;20054;-58
2022/09/28 10:51:40;;;;;;;1.20;0.80;;;13.20;99.90;;;13.37;100.00;99212.13;5149426;28;20526;-58
2022/09/28 10:54:19;;;;;;;1.05;0.50;;;13.20;99.90;;;13.36;100.00;99215.56;5149487;28;20050;-58
2022/09/28 10:56:55;;;;;;;1.25;0.60;;;13.20;99.90;;;13.34;100.00;99212.09;5149596;28;20109;-59
2022/09/28 10:59:40;;;;;;;1.90;1.02;;;13.20;99.90;;;13.37;100.00;99213.00;5148889;28;20052;-58
2022/09/28 11:02:47;;;;;;;0.63;0.50;;;13.20;99.90;;;13.53;100.00;99205.97;5156266;28;20050;-58
2022/09/28 11:05:27;;;;;;;1.40;0.55;;;13.30;99.90;;;13.62;97.80;99205.06;5149014;28;20049;-58
2022/09/28 11:08:06;;;;;;;0.88;0.40;;;13.40;99.90;;;13.60;97.77;99207.69;5149460;28;20146;-58
2022/09/28 11:10:46;;;;;;;1.67;0.60;;;13.40;99.90;;;13.52;97.93;99205.09;5148755;28;20093;-58
2022/09/28 11:13:20;;;;;;;0.70;0.68;;;13.40;99.90;;;13.48;97.96;99219.06;5148865;28;20141;-58
2022/09/28 11:16:04;;;;;;;0.68;0.40;;;13.40;99.90;;;13.46;98.79;99199.88;5148887;28;20058;-57
2022/09/28 11:18:39;;;;;;;1.20;0.43;;;13.40;99.90;;;13.47;98.60;99208.59;5148673;28;20063;-57